Time;durP1;ratioP1;P1;durP2;ratioP2;P2;SDS_P1;SDS_P2;PMS_P1;PMS_P2;Temp;Humidity;BMP_temperature;BMP_pressure;BME280_temperature;BME280_humidity;BME280_pressure;Samples;Min_cycle;Max_cycle;Signal;HPM_P1;HPM_P2
2021/06/27 00:00:38;;;;;;;3.80;3.40;;;22.20;88.90;;;;;;6289602;22;20002;-90
2021/06/27 00:03:05;;;;;;;4.25;3.35;;;22.30;89.00;;;;;;6264280;22;20352;-89
2021/06/27 00:05:32;;;;;;;3.42;3.05;;;22.30;88.70;;;;;;6261314;22;20004;-89
2021/06/27 00:07:59;;;;;;;5.07;3.40;;;22.30;88.30;;;;;;6257352;22;19996;-89
2021/06/27 00:10:32;;;;;;;3.75;3.08;;;22.40;87.30;;;;;;6256023;22;19996;-89
2021/06/27 00:12:58;;;;;;;3.40;3.10;;;22.40;86.70;;;;;;6258423;22;19995;-89
2021/06/27 00:15:29;;;;;;;3.47;3.08;;;22.40;87.00;;;;;;6258231;22;20079;-89
2021/06/27 00:17:56;;;;;;;3.75;3.40;;;22.40;86.00;;;;;;6255941;22;20466;-89
2021/06/27 00:20:25;;;;;;;5.20;3.20;;;22.40;85.90;;;;;;6255587;22;19996;-90
2021/06/27 00:22:51;;;;;;;4.28;3.50;;;22.40;85.80;;;;;;6258878;22;19996;-90
2021/06/27 00:25:20;;;;;;;4.65;3.65;;;22.40;86.00;;;;;;6259784;22;20067;-89
2021/06/27 00:27:50;;;;;;;4.63;3.50;;;22.40;85.70;;;;;;6257881;22;20106;-89
2021/06/27 00:30:18;;;;;;;3.17;2.75;;;22.50;85.40;;;;;;6257832;22;19999;-88
2021/06/27 00:32:44;;;;;;;3.47;3.17;;;22.40;85.30;;;;;;6258027;22;20018;-89
2021/06/27 00:35:12;;;;;;;3.97;3.25;;;22.40;85.20;;;;;;6263380;22;20026;-89
2021/06/27 00:37:38;;;;;;;3.05;2.80;;;22.40;85.00;;;;;;6277907;22;20030;-88
2021/06/27 00:40:11;;;;;;;3.25;2.95;;;22.40;85.00;;;;;;6280171;22;19996;-89
2021/06/27 00:42:37;;;;;;;3.75;2.90;;;22.40;84.70;;;;;;6280781;22;19992;-89
2021/06/27 00:45:05;;;;;;;4.18;2.63;;;22.40;85.20;;;;;;6280708;22;20016;-89
2021/06/27 00:47:33;;;;;;;3.30;2.80;;;22.40;85.30;;;;;;6280332;22;19999;-89
2021/06/27 00:49:59;;;;;;;4.15;2.65;;;22.40;85.30;;;;;;6262550;22;20014;-89
2021/06/27 00:52:26;;;;;;;3.15;2.42;;;22.40;85.40;;;;;;6263716;22;20055;-89
2021/06/27 00:54:52;;;;;;;2.42;2.22;;;22.40;85.40;;;;;;6291301;22;19999;-89
2021/06/27 00:57:19;;;;;;;4.63;3.40;;;22.30;85.10;;;;;;6262862;22;19992;-89
2021/06/27 00:59:45;;;;;;;4.10;3.55;;;22.30;84.80;;;;;;6258876;22;20049;-89
2021/06/27 01:02:11;;;;;;;2.83;2.58;;;22.30;84.40;;;;;;6260779;22;19996;-89
2021/06/27 01:04:37;;;;;;;2.65;2.40;;;22.30;84.30;;;;;;6261424;22;20015;-89
2021/06/27 01:07:04;;;;;;;2.53;2.33;;;22.30;84.60;;;;;;6263326;22;19999;-89
2021/06/27 01:09:30;;;;;;;4.15;2.50;;;22.30;85.10;;;;;;6291167;22;19991;-89
2021/06/27 01:12:00;;;;;;;3.78;3.35;;;22.30;84.40;;;;;;6263005;22;20050;-89
2021/06/27 01:14:26;;;;;;;3.97;3.10;;;22.30;83.80;;;;;;6264807;22;19996;-89
2021/06/27 01:16:52;;;;;;;3.13;2.72;;;22.30;84.10;;;;;;6286188;22;20071;-89
2021/06/27 01:19:18;;;;;;;3.38;2.92;;;22.30;84.10;;;;;;6258719;22;19995;-88
2021/06/27 01:21:44;;;;;;;5.05;3.50;;;22.30;83.80;;;;;;6259178;22;19996;-89
2021/06/27 01:24:10;;;;;;;6.35;3.30;;;22.30;83.90;;;;;;6260481;22;20006;-88
2021/06/27 01:26:36;;;;;;;3.00;2.67;;;22.30;83.80;;;;;;6262363;22;20117;-88
2021/06/27 01:29:02;;;;;;;5.10;3.75;;;22.30;84.00;;;;;;6261169;22;20419;-89
2021/06/27 01:31:28;;;;;;;3.88;3.25;;;22.30;83.70;;;;;;6284557;22;20395;-89
2021/06/27 01:33:55;;;;;;;4.72;3.63;;;22.30;83.80;;;;;;6257926;22;19996;-88
2021/06/27 01:36:22;;;;;;;3.67;3.30;;;22.30;83.80;;;;;;6259130;22;20016;-89
2021/06/27 01:38:48;;;;;;;4.93;3.15;;;22.30;83.80;;;;;;6282416;22;19999;-89
2021/06/27 01:41:14;;;;;;;4.20;3.17;;;22.40;83.80;;;;;;6258426;22;19992;-89
2021/06/27 01:43:39;;;;;;;3.78;3.35;;;22.40;83.90;;;;;;6260816;22;20065;-89
2021/06/27 01:46:05;;;;;;;5.07;3.13;;;22.40;83.90;;;;;;6259918;22;20004;-89
2021/06/27 01:48:36;;;;;;;3.75;3.08;;;22.40;84.00;;;;;;6262992;22;20002;-89
2021/06/27 01:51:03;;;;;;;3.35;2.85;;;22.40;83.80;;;;;;6287829;22;19987;-89
2021/06/27 01:53:32;;;;;;;3.55;3.25;;;22.40;83.90;;;;;;6262115;22;19999;-89
2021/06/27 01:56:06;;;;;;;3.92;3.28;;;22.50;83.80;;;;;;6261341;22;20053;-89
2021/06/27 01:58:41;;;;;;;3.88;3.47;;;22.50;83.80;;;;;;6261597;22;20292;-89
2021/06/27 02:01:28;;;;;;;5.72;3.60;;;22.50;83.00;;;;;;6261005;22;19998;-90
2021/06/27 02:03:54;;;;;;;3.55;2.95;;;22.50;82.60;;;;;;6288576;22;20061;-90
2021/06/27 02:06:22;;;;;;;5.50;3.17;;;22.50;83.40;;;;;;6259710;22;20094;-89
2021/06/27 02:08:49;;;;;;;4.00;3.03;;;22.50;83.60;;;;;;6259836;22;19995;-90
2021/06/27 02:11:19;;;;;;;2.95;2.75;;;22.50;83.80;;;;;;6260606;22;19992;-89
2021/06/27 02:13:46;;;;;;;4.05;3.13;;;22.50;83.70;;;;;;6289345;22;19988;-89
2021/06/27 02:16:12;;;;;;;3.10;2.80;;;22.50;83.80;;;;;;6260607;22;20007;-89
2021/06/27 02:18:40;;;;;;;3.35;2.65;;;22.50;83.80;;;;;;6263120;22;20049;-90
2021/06/27 02:21:10;;;;;;;3.72;2.75;;;22.60;83.80;;;;;;6261255;22;20000;-89
2021/06/27 02:23:37;;;;;;;4.03;3.17;;;22.60;83.80;;;;;;6263993;22;20022;-89
2021/06/27 02:26:04;;;;;;;4.38;3.25;;;22.60;83.80;;;;;;6265470;22;20004;-90
2021/06/27 02:28:30;;;;;;;3.80;3.10;;;22.60;83.70;;;;;;6263294;22;20003;-89
2021/06/27 02:30:57;;;;;;;4.93;2.90;;;22.60;83.70;;;;;;6261731;22;19999;-89
2021/06/27 02:33:23;;;;;;;4.40;3.17;;;22.60;83.50;;;;;;6263039;22;20003;-89
2021/06/27 02:35:49;;;;;;;3.58;3.20;;;22.60;83.20;;;;;;6260646;22;20003;-90
2021/06/27 02:38:15;;;;;;;2.97;2.67;;;22.60;83.30;;;;;;6260134;22;20426;-89
2021/06/27 02:40:42;;;;;;;3.90;3.50;;;22.60;83.50;;;;;;6262678;22;19992;-90
2021/06/27 02:43:09;;;;;;;3.70;2.92;;;22.70;83.20;;;;;;6278703;22;19988;-89
2021/06/27 02:45:35;;;;;;;3.65;3.35;;;22.70;83.20;;;;;;6279488;22;20007;-88
2021/06/27 02:48:01;;;;;;;3.90;3.13;;;22.70;83.10;;;;;;6279669;22;19992;-90
2021/06/27 02:50:27;;;;;;;4.28;3.03;;;22.70;82.90;;;;;;6279707;22;19996;-89
2021/06/27 02:52:53;;;;;;;3.97;3.00;;;22.70;82.80;;;;;;6279293;22;20015;-89
2021/06/27 02:55:19;;;;;;;2.97;2.70;;;22.80;82.90;;;;;;6265279;22;20007;-90
2021/06/27 02:57:44;;;;;;;3.25;2.95;;;22.80;82.90;;;;;;6261548;22;20030;-90
2021/06/27 03:00:17;;;;;;;3.42;3.13;;;22.80;82.70;;;;;;6262278;22;20396;-90
2021/06/27 03:02:43;;;;;;;3.55;3.10;;;22.90;82.80;;;;;;6288922;22;19988;-90
2021/06/27 03:05:10;;;;;;;3.42;3.13;;;22.90;82.80;;;;;;6259538;22;20017;-90
2021/06/27 03:07:36;;;;;;;4.43;2.88;;;22.90;82.30;;;;;;6259136;22;20030;-89
2021/06/27 03:10:08;;;;;;;3.33;3.00;;;22.90;82.10;;;;;;6259556;22;20019;-89
2021/06/27 03:12:34;;;;;;;4.22;3.20;;;23.00;81.70;;;;;;6287381;22;20410;-90
2021/06/27 03:14:59;;;;;;;3.22;2.92;;;23.00;82.00;;;;;;6261934;22;19999;-90
2021/06/27 03:17:25;;;;;;;3.65;3.35;;;23.00;81.80;;;;;;6261501;22;19996;-89
2021/06/27 03:19:51;;;;;;;3.55;2.75;;;23.10;81.30;;;;;;6263579;22;19996;-90
2021/06/27 03:22:17;;;;;;;3.25;2.95;;;23.10;81.30;;;;;;6260440;22;19999;-89
2021/06/27 03:24:42;;;;;;;2.63;2.28;;;23.20;80.90;;;;;;6263511;22;20086;-90
2021/06/27 03:27:08;;;;;;;4.03;3.53;;;23.20;81.30;;;;;;6267392;22;20055;-90
2021/06/27 03:29:34;;;;;;;3.85;3.20;;;23.20;80.70;;;;;;6266450;22;19996;-89
2021/06/27 03:31:59;;;;;;;8.05;3.50;;;23.20;80.80;;;;;;6267277;22;20044;-89
2021/06/27 03:34:25;;;;;;;3.42;3.13;;;23.20;81.10;;;;;;6265316;22;19996;-89
2021/06/27 03:36:51;;;;;;;3.83;3.45;;;23.30;81.40;;;;;;6266951;22;20004;-89
2021/06/27 03:39:19;;;;;;;6.90;3.72;;;23.30;81.30;;;;;;6266133;22;20000;-89
2021/06/27 03:41:47;;;;;;;4.82;3.35;;;23.30;81.50;;;;;;6293768;22;19988;-89
2021/06/27 03:44:13;;;;;;;4.32;3.60;;;23.30;81.80;;;;;;6265081;22;20007;-89
2021/06/27 03:46:39;;;;;;;3.38;3.08;;;23.30;81.80;;;;;;6264526;22;20011;-89
2021/06/27 03:49:05;;;;;;;3.95;3.63;;;23.30;81.90;;;;;;6262995;22;20015;-89
2021/06/27 03:51:31;;;;;;;4.32;3.92;;;23.30;81.90;;;;;;6260797;22;20003;-90
2021/06/27 03:53:57;;;;;;;4.47;4.07;;;23.20;82.00;;;;;;6255177;22;19999;-91
2021/06/27 03:56:23;;;;;;;3.97;3.58;;;23.20;82.00;;;;;;6284774;22;19996;-90
2021/06/27 03:58:49;;;;;;;5.05;3.90;;;23.20;81.70;;;;;;6259450;22;19996;-89
2021/06/27 04:01:16;;;;;;;9.80;4.65;;;23.20;81.70;;;;;;6288243;22;19995;-89
2021/06/27 04:03:42;;;;;;;5.40;4.70;;;23.20;81.00;;;;;;6258720;22;19996;-89
2021/06/27 04:06:08;;;;;;;4.80;4.10;;;23.20;81.10;;;;;;6259444;22;20008;-90
2021/06/27 04:08:34;;;;;;;4.70;4.00;;;23.30;81.50;;;;;;6260059;22;19996;-90
2021/06/27 04:11:00;;;;;;;5.57;4.20;;;23.30;81.10;;;;;;6258822;22;20019;-90
2021/06/27 04:13:28;;;;;;;4.97;4.47;;;23.30;81.20;;;;;;6259944;22;19991;-89
2021/06/27 04:15:54;;;;;;;5.85;4.35;;;23.30;81.20;;;;;;6261927;22;20015;-90
2021/06/27 04:18:21;;;;;;;4.97;4.47;;;23.40;81.20;;;;;;6291184;22;20018;-89
2021/06/27 04:20:47;;;;;;;4.78;4.20;;;23.40;81.60;;;;;;6263733;22;20064;-90
2021/06/27 04:23:13;;;;;;;8.13;4.80;;;23.40;81.90;;;;;;6263829;22;20003;-90
2021/06/27 04:25:39;;;;;;;8.00;4.55;;;23.50;81.80;;;;;;6261077;22;20121;-89
2021/06/27 04:28:06;;;;;;;5.03;4.47;;;23.50;81.90;;;;;;6262400;22;19991;-90
2021/06/27 04:30:33;;;;;;;4.93;4.43;;;23.60;82.30;;;;;;6261868;22;20009;-90
2021/06/27 04:32:58;;;;;;;7.15;5.38;;;23.60;82.10;;;;;;6261911;22;20018;-90
2021/06/27 04:35:24;;;;;;;5.45;4.82;;;23.60;82.30;;;;;;6260569;22;20433;-89
2021/06/27 04:37:50;;;;;;;5.45;4.53;;;23.60;81.40;;;;;;6258743;22;20138;-89
2021/06/27 04:40:16;;;;;;;4.95;4.00;;;23.70;81.10;;;;;;6261252;22;20087;-89
2021/06/27 04:42:42;;;;;;;4.88;4.40;;;23.70;80.60;;;;;;6263951;22;20002;-90
2021/06/27 04:45:08;;;;;;;5.10;4.55;;;23.80;81.00;;;;;;6260998;22;20011;-89
2021/06/27 04:47:35;;;;;;;5.25;4.13;;;23.90;79.50;;;;;;6270984;22;20003;-90
2021/06/27 04:50:03;;;;;;;4.63;4.20;;;23.80;78.80;;;;;;6280687;22;19988;-89
2021/06/27 04:52:29;;;;;;;6.47;4.22;;;23.80;78.90;;;;;;6298076;22;19999;-89
2021/06/27 04:54:55;;;;;;;4.72;3.78;;;23.80;78.90;;;;;;6337361;22;20026;-89
2021/06/27 04:57:21;;;;;;;6.63;5.15;;;23.90;78.50;;;;;;6337099;22;19987;-88
2021/06/27 04:59:46;;;;;;;7.03;4.65;;;23.90;78.90;;;;;;6328804;22;19999;-89
2021/06/27 05:02:12;;;;;;;4.93;4.43;;;23.90;78.00;;;;;;6316810;22;19991;-89
2021/06/27 05:04:38;;;;;;;6.07;4.63;;;24.00;78.00;;;;;;6316919;22;19999;-90
2021/06/27 05:07:04;;;;;;;4.53;4.10;;;23.90;77.90;;;;;;6317337;22;19998;-90
2021/06/27 05:09:29;;;;;;;5.15;4.60;;;23.90;77.80;;;;;;6318563;22;20003;-90
2021/06/27 05:11:55;;;;;;;5.22;4.72;;;23.90;77.40;;;;;;6317735;22;19995;-90
2021/06/27 05:14:21;;;;;;;6.97;5.40;;;23.80;77.20;;;;;;6319542;22;20006;-89
2021/06/27 05:16:47;;;;;;;5.15;4.45;;;23.80;77.30;;;;;;6318528;22;20422;-91
2021/06/27 05:19:12;;;;;;;4.93;4.43;;;23.80;77.30;;;;;;6318480;22;19992;-90
2021/06/27 05:21:38;;;;;;;4.72;4.15;;;23.70;77.40;;;;;;6317908;22;19995;-89
2021/06/27 05:24:05;;;;;;;5.35;4.85;;;23.70;77.60;;;;;;6315281;22;19992;-90
2021/06/27 05:26:30;;;;;;;5.80;4.95;;;23.70;77.50;;;;;;6316177;22;19995;-89
2021/06/27 05:28:56;;;;;;;4.85;4.15;;;23.60;77.60;;;;;;6315931;22;20027;-89
2021/06/27 05:31:22;;;;;;;4.97;4.53;;;23.60;77.80;;;;;;6317226;22;20029;-89
2021/06/27 05:33:48;;;;;;;6.10;4.93;;;23.50;77.80;;;;;;6300860;22;19996;-89
2021/06/27 05:36:13;;;;;;;5.32;4.63;;;23.40;78.00;;;;;;6286919;22;19995;-90
2021/06/27 05:38:40;;;;;;;7.28;4.80;;;23.40;78.40;;;;;;6286321;22;20027;-90
2021/06/27 05:41:06;;;;;;;5.03;4.47;;;23.30;78.70;;;;;;6287783;22;19998;-89
2021/06/27 05:43:32;;;;;;;6.30;4.95;;;23.20;79.20;;;;;;6285861;22;20000;-87
2021/06/27 05:45:58;;;;;;;6.60;4.95;;;23.20;79.60;;;;;;6287689;22;20022;-88
2021/06/27 05:48:24;;;;;;;4.85;4.40;;;23.20;80.10;;;;;;6287768;22;20010;-89
2021/06/27 05:50:50;;;;;;;4.97;4.47;;;23.10;80.30;;;;;;6289473;22;20016;-89
2021/06/27 05:53:16;;;;;;;6.32;5.15;;;23.10;80.70;;;;;;6261982;22;20023;-88
2021/06/27 05:55:41;;;;;;;7.10;4.55;;;23.10;81.20;;;;;;6261265;22;20020;-88
2021/06/27 05:58:07;;;;;;;4.65;4.13;;;23.10;81.50;;;;;;6261420;22;20115;-91
2021/06/27 06:00:33;;;;;;;5.07;4.57;;;23.10;81.80;;;;;;6265080;22;20000;-90
2021/06/27 06:02:59;;;;;;;6.32;5.15;;;23.10;82.20;;;;;;6264326;22;20004;-90
2021/06/27 06:05:24;;;;;;;6.72;6.03;;;23.10;82.40;;;;;;6290101;22;20027;-89
2021/06/27 06:07:51;;;;;;;10.38;5.65;;;23.10;83.00;;;;;;6257213;22;20019;-89
2021/06/27 06:10:17;;;;;;;6.28;5.07;;;23.00;83.40;;;;;;6287338;22;20469;-89
2021/06/27 06:12:43;;;;;;;5.60;4.13;;;22.90;83.60;;;;;;6260077;22;20075;-90
2021/06/27 06:15:09;;;;;;;6.57;5.03;;;22.90;83.70;;;;;;6261273;22;20011;-90
2021/06/27 06:17:35;;;;;;;4.60;4.18;;;22.90;84.10;;;;;;6289585;22;19996;-90
2021/06/27 06:20:01;;;;;;;4.78;4.28;;;22.90;84.20;;;;;;6260455;22;20007;-90
2021/06/27 06:22:27;;;;;;;6.25;4.68;;;22.90;84.30;;;;;;6289339;22;20002;-89
2021/06/27 06:24:53;;;;;;;6.05;5.45;;;23.00;84.40;;;;;;6258956;22;20071;-89
2021/06/27 06:27:18;;;;;;;5.85;4.60;;;23.00;84.70;;;;;;6259143;22;20004;-89
2021/06/27 06:29:44;;;;;;;5.53;5.03;;;23.00;84.70;;;;;;6259346;22;20004;-89
2021/06/27 06:32:10;;;;;;;5.32;4.45;;;23.00;85.00;;;;;;6258908;22;20367;-90
2021/06/27 06:34:39;;;;;;;5.13;4.63;;;23.00;85.20;;;;;;6258367;22;20063;-89
2021/06/27 06:37:04;;;;;;;5.20;4.70;;;23.00;85.60;;;;;;6258959;22;20002;-89
2021/06/27 06:39:33;;;;;;;7.50;5.13;;;22.90;85.90;;;;;;6255662;22;20040;-89
2021/06/27 06:41:59;;;;;;;5.32;4.68;;;23.00;86.20;;;;;;6256834;22;20007;-89
2021/06/27 06:44:24;;;;;;;8.50;5.43;;;23.00;86.50;;;;;;6255901;22;20000;-89
2021/06/27 06:46:50;;;;;;;5.47;4.97;;;23.00;86.40;;;;;;6255805;22;20004;-88
2021/06/27 06:49:17;;;;;;;6.22;4.18;;;23.00;86.80;;;;;;6254128;22;19995;-89
2021/06/27 06:51:43;;;;;;;4.25;3.85;;;23.10;86.90;;;;;;6251670;22;20019;-89
2021/06/27 06:54:08;;;;;;;6.28;5.13;;;23.20;86.90;;;;;;6252973;22;20303;-89
2021/06/27 06:56:35;;;;;;;5.90;5.03;;;23.30;87.00;;;;;;6273729;22;20084;-89
2021/06/27 06:59:01;;;;;;;5.25;4.75;;;23.40;86.70;;;;;;6278812;22;20296;-88
2021/06/27 07:01:27;;;;;;;6.78;5.10;;;23.50;86.70;;;;;;6278481;22;20010;-88
2021/06/27 07:03:52;;;;;;;7.70;5.88;;;23.60;86.60;;;;;;6278857;22;19995;-89
2021/06/27 07:06:19;;;;;;;7.15;6.45;;;23.60;86.50;;;;;;6278446;22;20003;-89
2021/06/27 07:08:52;;;;;;;6.22;5.63;;;23.60;86.50;;;;;;6278685;22;19988;-91
2021/06/27 07:11:18;;;;;;;6.35;5.75;;;23.60;86.60;;;;;;6299800;22;20011;-89
2021/06/27 07:13:43;;;;;;;6.50;4.97;;;23.60;86.90;;;;;;6262725;22;20063;-89
2021/06/27 07:16:09;;;;;;;6.70;5.35;;;23.60;86.30;;;;;;6282019;22;20019;-91
2021/06/27 07:18:35;;;;;;;5.43;4.93;;;23.70;86.40;;;;;;6256931;22;19999;-91
2021/06/27 07:21:01;;;;;;;5.55;4.88;;;23.70;86.40;;;;;;6255272;22;20003;-92
2021/06/27 07:23:27;;;;;;;5.10;4.22;;;23.70;86.20;;;;;;6252558;22;20010;-90
2021/06/27 07:25:52;;;;;;;6.00;5.40;;;23.80;86.10;;;;;;6251575;22;20011;-89
2021/06/27 07:28:18;;;;;;;6.78;5.25;;;23.80;86.10;;;;;;6251882;22;20490;-91
2021/06/27 07:30:44;;;;;;;5.18;4.68;;;23.80;86.00;;;;;;6252091;22;20008;-92
2021/06/27 07:33:11;;;;;;;5.80;5.20;;;23.80;85.80;;;;;;6251794;22;20419;-92
2021/06/27 07:35:37;;;;;;;6.60;5.60;;;23.90;85.60;;;;;;6251423;22;20000;-92
2021/06/27 07:38:08;;;;;;;5.22;4.72;;;23.90;85.40;;;;;;6251569;22;20087;-91
2021/06/27 07:40:38;;;;;;;5.95;4.90;;;23.90;85.50;;;;;;6252257;22;20031;-91
2021/06/27 07:43:05;;;;;;;5.60;5.05;;;24.00;85.60;;;;;;6253696;22;20077;-90
2021/06/27 07:45:31;;;;;;;6.38;5.30;;;23.90;85.50;;;;;;6252095;22;20012;-91
2021/06/27 07:47:56;;;;;;;6.05;4.93;;;23.90;85.30;;;;;;6278105;22;20323;-91
2021/06/27 07:50:22;;;;;;;6.57;4.78;;;23.90;85.30;;;;;;6253311;22;20419;-92
2021/06/27 07:52:55;;;;;;;5.57;4.95;;;24.00;85.50;;;;;;6253115;22;20016;-91
2021/06/27 07:55:21;;;;;;;7.20;4.82;;;24.10;86.60;;;;;;6253105;22;20000;-92
2021/06/27 07:57:46;;;;;;;6.28;5.53;;;24.10;86.90;;;;;;6252742;22;20026;-92
2021/06/27 08:00:20;;;;;;;7.13;6.43;;;24.10;87.10;;;;;;6254979;22;20000;-93
2021/06/27 08:02:46;;;;;;;8.48;6.78;;;24.20;86.70;;;;;;6260295;22;20000;-92
2021/06/27 08:05:12;;;;;;;7.72;6.15;;;24.20;86.70;;;;;;6253653;22;20007;-93
2021/06/27 08:07:38;;;;;;;7.90;7.10;;;24.20;87.00;;;;;;6253005;22;20008;-89
2021/06/27 08:10:06;;;;;;;9.98;6.03;;;24.30;87.00;;;;;;6253681;22;20008;-90
2021/06/27 08:12:32;;;;;;;7.20;6.50;;;24.40;87.00;;;;;;6253815;22;20483;-92
2021/06/27 08:14:58;;;;;;;7.55;6.18;;;24.40;86.00;;;;;;6253016;22;20095;-91
2021/06/27 08:17:24;;;;;;;7.63;5.20;;;24.50;85.90;;;;;;6252646;22;20003;-90
2021/06/27 08:19:50;;;;;;;6.75;6.05;;;24.60;86.10;;;;;;6256764;22;20003;-92
2021/06/27 08:22:16;;;;;;;6.63;5.90;;;24.60;85.20;;;;;;6257574;22;19999;-90
2021/06/27 08:24:42;;;;;;;6.43;5.82;;;24.60;83.70;;;;;;6252940;22;20000;-91
2021/06/27 08:27:09;;;;;;;6.97;6.25;;;24.50;83.80;;;;;;6251518;22;20115;-91
2021/06/27 08:29:36;;;;;;;6.50;5.80;;;24.50;84.40;;;;;;6252109;22;19999;-91
2021/06/27 08:32:02;;;;;;;7.32;6.65;;;24.60;84.30;;;;;;6252226;22;20004;-92
2021/06/27 08:34:29;;;;;;;6.22;5.43;;;24.70;83.30;;;;;;6253492;22;20379;-91
2021/06/27 08:36:54;;;;;;;6.38;5.13;;;24.80;83.40;;;;;;6254511;22;20027;-91
2021/06/27 08:39:20;;;;;;;6.50;5.88;;;25.00;83.80;;;;;;6282136;22;19996;-92
2021/06/27 08:41:47;;;;;;;6.18;4.97;;;25.20;83.40;;;;;;6255143;22;20000;-90
2021/06/27 08:44:15;;;;;;;7.38;6.47;;;25.40;82.90;;;;;;6256930;22;19999;-91
2021/06/27 08:46:43;;;;;;;6.15;5.55;;;25.70;81.80;;;;;;6280122;22;20430;-92
2021/06/27 08:49:13;;;;;;;7.47;5.25;;;25.80;81.20;;;;;;6254155;22;20095;-92
2021/06/27 08:51:40;;;;;;;7.68;6.15;;;25.90;80.60;;;;;;6254497;22;20019;-91
2021/06/27 08:54:10;;;;;;;8.30;5.95;;;25.90;80.20;;;;;;6254121;22;20004;-92
2021/06/27 08:56:38;;;;;;;7.43;6.43;;;25.90;78.90;;;;;;6252937;22;20075;-91
2021/06/27 08:59:04;;;;;;;7.03;6.32;;;25.90;79.10;;;;;;6280197;22;20187;-90
2021/06/27 09:01:30;;;;;;;6.88;6.18;;;25.70;79.00;;;;;;6254250;22;20002;-88
2021/06/27 09:03:56;;;;;;;7.60;6.10;;;25.70;79.50;;;;;;6252844;22;20028;-91
2021/06/27 09:06:40;;;;;;;8.73;6.60;;;25.60;79.40;;;;;;6258280;22;20497;-92
2021/06/27 09:09:15;;;;;;;;;;;25.50;79.90;;;;;;6274992;22;20004;-92
2021/06/27 09:12:01;;;;;;;8.15;6.72;;;25.40;80.30;;;;;;6277576;22;19942;-92
2021/06/27 09:14:46;;;;;;;8.70;7.47;;;25.50;80.30;;;;;;6304108;22;20000;-95
2021/06/27 09:17:20;;;;;;;7.00;6.32;;;25.60;79.60;;;;;;6277475;22;19987;-90
2021/06/27 09:19:55;;;;;;;7.75;6.43;;;25.70;79.20;;;;;;6276445;22;20004;-91
2021/06/27 09:22:26;;;;;;;7.32;6.60;;;25.80;79.40;;;;;;6281950;22;19992;-91
2021/06/27 09:25:19;;;;;;;;;;;;;;;;;;;;;
2021/06/27 09:28:13;;;;;;;9.00;6.38;;;26.10;78.30;;;;;;6280324;22;20066;-88
2021/06/27 09:30:39;;;;;;;;;;;26.10;77.50;;;;;;6239888;22;20007;-89
2021/06/27 09:33:32;;;;;;;8.23;7.35;;;26.10;77.20;;;;;;6254997;22;19899;-90
2021/06/27 09:36:07;;;;;;;8.20;6.97;;;26.10;77.10;;;;;;6252906;22;20011;-89
2021/06/27 09:38:51;;;;;;;7.53;6.82;;;26.00;76.60;;;;;;6251542;22;20006;-90
2021/06/27 09:41:27;;;;;;;8.20;7.40;;;25.80;76.70;;;;;;6252426;22;20042;-90
2021/06/27 09:43:58;;;;;;;7.22;6.47;;;25.70;77.10;;;;;;6251333;22;20004;-88
2021/06/27 09:46:43;;;;;;;7.95;6.68;;;25.70;77.80;;;;;;6278187;22;20506;-91
2021/06/27 09:49:15;;;;;;;7.93;7.13;;;25.70;78.20;;;;;;6251817;22;20003;-89
2021/06/27 09:51:51;;;;;;;8.18;7.35;;;25.70;78.30;;;;;;6278741;22;20020;-89
2021/06/27 09:54:20;;;;;;;8.10;7.30;;;25.80;78.50;;;;;;6251799;22;20351;-89
2021/06/27 09:56:46;;;;;;;8.18;7.32;;;25.90;78.20;;;;;;6251181;22;20058;-89
2021/06/27 09:59:15;;;;;;;9.23;6.82;;;26.00;77.80;;;;;;6251510;22;19995;-91
2021/06/27 10:01:42;;;;;;;7.80;6.95;;;25.90;77.30;;;;;;6251290;22;20008;-90
2021/06/27 10:04:15;;;;;;;8.63;6.78;;;26.00;77.60;;;;;;6252909;22;20007;-90
2021/06/27 10:06:47;;;;;;;7.93;6.90;;;26.10;76.90;;;;;;6253721;22;20014;-88
2021/06/27 10:09:18;;;;;;;8.32;7.60;;;26.30;76.70;;;;;;6253884;22;20000;-89
2021/06/27 10:12:05;;;;;;;8.15;7.35;;;26.40;75.70;;;;;;6283015;22;20000;-90
2021/06/27 10:14:54;;;;;;;7.85;6.75;;;26.40;74.70;;;;;;6255480;22;20004;-89
2021/06/27 10:17:23;;;;;;;7.47;6.72;;;26.60;75.20;;;;;;6256279;22;20004;-90
2021/06/27 10:19:50;;;;;;;7.47;6.78;;;26.80;74.30;;;;;;6254063;22;19999;-90
2021/06/27 10:22:16;;;;;;;7.95;6.68;;;27.00;73.60;;;;;;6278280;22;20055;-91
2021/06/27 10:24:42;;;;;;;6.95;6.00;;;27.10;73.40;;;;;;6251243;22;20418;-90
2021/06/27 10:27:15;;;;;;;8.68;7.13;;;27.30;73.40;;;;;;6251343;22;19996;-91
2021/06/27 10:29:49;;;;;;;7.95;7.15;;;27.40;71.90;;;;;;6251638;22;19999;-90
2021/06/27 10:32:17;;;;;;;6.55;5.95;;;27.40;71.10;;;;;;6254303;22;19995;-90
2021/06/27 10:34:43;;;;;;;8.20;7.50;;;27.40;72.20;;;;;;6252042;22;20018;-91
2021/06/27 10:37:18;;;;;;;8.65;7.20;;;27.50;71.30;;;;;;6250506;22;20008;-91
2021/06/27 10:39:59;;;;;;;7.88;7.07;;;27.40;70.90;;;;;;6256164;22;20078;-90
2021/06/27 10:42:47;;;;;;;7.90;7.20;;;27.30;71.40;;;;;;6251608;22;20145;-90
2021/06/27 10:45:12;;;;;;;7.20;6.50;;;27.20;70.60;;;;;;6251707;22;20303;-90
2021/06/27 10:47:38;;;;;;;7.93;6.10;;;27.20;71.60;;;;;;6251140;22;20029;-90
2021/06/27 10:50:09;;;;;;;6.95;6.35;;;27.30;71.60;;;;;;6251332;22;20023;-89
2021/06/27 10:52:54;;;;;;;6.80;6.18;;;27.40;72.00;;;;;;6251647;22;20019;-89
2021/06/27 10:55:29;;;;;;;6.15;5.55;;;27.50;71.00;;;;;;6250213;22;19999;-89
2021/06/27 10:58:10;;;;;;;7.05;6.45;;;27.70;71.40;;;;;;6249876;22;19995;-88
2021/06/27 11:00:56;;;;;;;7.18;5.65;;;27.80;70.20;;;;;;6250835;22;20090;-88
2021/06/27 11:03:41;;;;;;;6.10;5.57;;;27.80;69.30;;;;;;6252575;22;20318;-91
2021/06/27 11:06:15;;;;;;;6.53;5.93;;;27.90;69.80;;;;;;6253467;22;20008;-91
2021/06/27 11:08:51;;;;;;;6.82;6.13;;;27.90;68.80;;;;;;6251891;22;19999;-88
2021/06/27 11:11:23;;;;;;;6.90;5.53;;;28.00;69.30;;;;;;6252397;22;20023;-90
2021/06/27 11:14:08;;;;;;;7.70;6.68;;;28.00;69.20;;;;;;6254012;22;20007;-89
2021/06/27 11:16:58;;;;;;;7.47;5.60;;;27.90;68.50;;;;;;6241650;22;19992;-90
2021/06/27 11:19:26;;;;;;;5.28;4.78;;;27.90;69.50;;;;;;6278444;22;19994;-91
2021/06/27 11:22:17;;;;;;;6.30;5.68;;;28.10;69.60;;;;;;6277944;22;19994;-93
2021/06/27 11:24:44;;;;;;;6.53;5.93;;;28.20;68.20;;;;;;6277880;22;20064;-87
2021/06/27 11:27:36;;;;;;;6.30;5.70;;;28.10;68.60;;;;;;6277679;22;20016;-89
2021/06/27 11:30:26;;;;;;;5.32;4.82;;;28.00;68.90;;;;;;6254603;22;19999;-93
2021/06/27 11:32:53;;;;;;;6.22;5.50;;;28.00;69.20;;;;;;6252848;22;20030;-89
2021/06/27 11:35:39;;;;;;;5.55;5.05;;;28.10;69.30;;;;;;6253738;22;20015;-90
2021/06/27 11:38:07;;;;;;;6.80;6.10;;;28.20;68.70;;;;;;6252786;22;20006;-90
2021/06/27 11:40:48;;;;;;;6.15;5.00;;;28.40;68.80;;;;;;6252045;22;20004;-89
2021/06/27 11:43:14;;;;;;;5.75;5.15;;;28.40;68.50;;;;;;6251150;22;20423;-90
2021/06/27 11:45:42;;;;;;;8.65;5.60;;;28.50;68.50;;;;;;6249781;22;20094;-89
2021/06/27 11:48:09;;;;;;;6.63;5.63;;;28.50;68.50;;;;;;6278146;22;20007;-90
2021/06/27 11:50:38;;;;;;;8.10;6.13;;;28.40;68.70;;;;;;6277651;22;20034;-89
2021/06/27 11:53:12;;;;;;;6.03;5.43;;;28.40;68.70;;;;;;6251754;22;20015;-90
2021/06/27 11:55:44;;;;;;;6.43;5.85;;;28.40;68.70;;;;;;6251796;22;20057;-90
2021/06/27 11:58:21;;;;;;;5.68;5.07;;;28.30;68.50;;;;;;6251915;22;19996;-89
2021/06/27 12:00:52;;;;;;;5.50;5.00;;;28.20;68.50;;;;;;6250492;22;19996;-90
2021/06/27 12:03:20;;;;;;;6.38;5.78;;;28.10;68.90;;;;;;6252350;22;20004;-89
2021/06/27 12:05:50;;;;;;;9.55;4.93;;;28.10;69.10;;;;;;6251589;22;20012;-89
2021/06/27 12:08:16;;;;;;;6.93;5.00;;;28.10;69.30;;;;;;6251974;22;20409;-90
2021/06/27 12:10:42;;;;;;;6.53;5.60;;;28.10;69.40;;;;;;6251101;22;20000;-90
2021/06/27 12:13:09;;;;;;;5.90;4.60;;;28.10;68.80;;;;;;6250971;22;20011;-90
2021/06/27 12:15:39;;;;;;;6.35;5.70;;;28.10;68.80;;;;;;6251587;22;20095;-89
2021/06/27 12:18:21;;;;;;;6.20;5.60;;;28.00;69.10;;;;;;6251783;22;20004;-89
2021/06/27 12:20:56;;;;;;;6.28;5.68;;;27.80;69.50;;;;;;6251400;22;20011;-89
2021/06/27 12:23:29;;;;;;;7.50;6.65;;;27.70;69.60;;;;;;6250812;22;20011;-90
2021/06/27 12:26:02;;;;;;;12.13;6.50;;;27.60;69.80;;;;;;6250968;22;20012;-89
2021/06/27 12:28:30;;;;;;;;;;;27.60;70.30;;;;;;6251662;22;20046;-89
2021/06/27 12:30:58;;;;;;;6.35;5.65;;;27.60;70.40;;;;;;6251215;22;19899;-89
2021/06/27 12:33:24;;;;;;;6.07;5.47;;;27.60;70.40;;;;;;6251060;22;20007;-89
2021/06/27 12:35:53;;;;;;;5.82;5.32;;;27.70;70.00;;;;;;6280547;22;20007;-90
2021/06/27 12:38:19;;;;;;;5.38;4.88;;;27.80;69.60;;;;;;6254111;22;20030;-90
2021/06/27 12:40:48;;;;;;;6.25;5.30;;;27.90;69.90;;;;;;6255700;22;20067;-89
2021/06/27 12:43:21;;;;;;;5.40;4.90;;;28.10;68.80;;;;;;6282570;22;20014;-89
2021/06/27 12:46:06;;;;;;;;;;;28.30;67.70;;;;;;6256035;22;20077;-89
2021/06/27 12:48:32;;;;;;;5.78;5.20;;;28.40;67.50;;;;;;6254377;22;20274;-90
2021/06/27 12:50:58;;;;;;;5.53;5.03;;;28.70;67.90;;;;;;6254094;22;19999;-89
2021/06/27 12:53:24;;;;;;;6.55;5.63;;;29.00;66.80;;;;;;6255042;22;20000;-89
2021/06/27 12:55:54;;;;;;;5.95;4.80;;;29.30;66.30;;;;;;6254098;22;20091;-90